sensor_id;sensor_type;location;lat;lon;timestamp;pressure;altitude;pressure_sealevel;temperature;humidity
62124;BME280;48110;47.532;19.078;2023-05-07T00:02:47;100377.84;;;14.90;100.00
62124;BME280;48110;47.532;19.078;2023-05-07T00:05:50;100376.13;;;14.82;100.00
62124;BME280;48110;47.532;19.078;2023-05-07T00:08:56;100376.47;;;14.72;100.00
62124;BME280;48110;47.532;19.078;2023-05-07T00:12:00;100382.87;;;14.71;100.00
62124;BME280;48110;47.532;19.078;2023-05-07T00:15:03;100371.84;;;14.81;100.00
62124;BME280;48110;47.532;19.078;2023-05-07T00:18:06;100371.84;;;14.81;100.00
62124;BME280;48110;47.532;19.078;2023-05-07T00:21:09;100376.09;;;14.75;100.00
62124;BME280;48110;47.532;19.078;2023-05-07T00:24:12;100379.72;;;14.68;100.00
62124;BME280;48110;47.532;19.078;2023-05-07T00:27:15;100382.38;;;14.61;100.00
62124;BME280;48110;47.532;19.078;2023-05-07T00:30:18;100376.78;;;14.56;100.00
62124;BME280;48110;47.532;19.078;2023-05-07T00:33:21;100380.66;;;14.54;100.00
62124;BME280;48110;47.532;19.078;2023-05-07T00:36:24;100383.97;;;14.56;100.00
62124;BME280;48110;47.532;19.078;2023-05-07T00:39:28;100377.72;;;14.49;100.00
62124;BME280;48110;47.532;19.078;2023-05-07T00:42:31;100383.22;;;14.41;100.00
62124;BME280;48110;47.532;19.078;2023-05-07T00:45:34;100389.03;;;14.29;100.00
62124;BME280;48110;47.532;19.078;2023-05-07T00:48:37;100388.91;;;14.16;100.00
62124;BME280;48110;47.532;19.078;2023-05-07T00:51:40;100397.84;;;14.09;100.00
62124;BME280;48110;47.532;19.078;2023-05-07T00:54:43;100394.69;;;13.99;100.00
62124;BME280;48110;47.532;19.078;2023-05-07T00:57:46;100395.06;;;13.96;100.00
62124;BME280;48110;47.532;19.078;2023-05-07T01:00:50;100387.50;;;13.99;100.00
62124;BME280;48110;47.532;19.078;2023-05-07T01:03:53;100388.97;;;14.02;100.00
62124;BME280;48110;47.532;19.078;2023-05-07T01:06:58;100392.91;;;14.06;100.00
62124;BME280;48110;47.532;19.078;2023-05-07T01:10:03;100390.75;;;14.16;100.00
62124;BME280;48110;47.532;19.078;2023-05-07T01:13:07;100389.00;;;14.23;100.00
62124;BME280;48110;47.532;19.078;2023-05-07T01:16:09;100390.28;;;14.33;100.00
62124;BME280;48110;47.532;19.078;2023-05-07T01:19:14;100393.31;;;14.45;100.00
62124;BME280;48110;47.532;19.078;2023-05-07T01:22:38;100396.16;;;14.44;100.00
62124;BME280;48110;47.532;19.078;2023-05-07T01:25:42;100407.06;;;14.42;100.00
62124;BME280;48110;47.532;19.078;2023-05-07T01:28:45;100400.06;;;14.41;100.00
62124;BME280;48110;47.532;19.078;2023-05-07T01:31:50;100408.44;;;14.38;100.00
62124;BME280;48110;47.532;19.078;2023-05-07T01:34:55;100415.53;;;14.31;100.00
62124;BME280;48110;47.532;19.078;2023-05-07T01:38:00;100408.25;;;14.40;100.00
62124;BME280;48110;47.532;19.078;2023-05-07T01:41:03;100403.34;;;14.43;100.00
62124;BME280;48110;47.532;19.078;2023-05-07T01:44:07;100406.06;;;14.28;100.00
62124;BME280;48110;47.532;19.078;2023-05-07T01:47:11;100397.25;;;14.28;100.00
62124;BME280;48110;47.532;19.078;2023-05-07T01:50:18;100393.03;;;14.19;100.00
62124;BME280;48110;47.532;19.078;2023-05-07T01:53:21;100393.09;;;14.04;100.00
62124;BME280;48110;47.532;19.078;2023-05-07T01:56:25;100393.91;;;14.05;100.00
62124;BME280;48110;47.532;19.078;2023-05-07T01:59:28;100396.47;;;13.91;100.00
62124;BME280;48110;47.532;19.078;2023-05-07T02:02:30;100395.56;;;13.84;100.00
62124;BME280;48110;47.532;19.078;2023-05-07T02:05:34;100382.53;;;13.75;100.00
62124;BME280;48110;47.532;19.078;2023-05-07T02:08:37;100379.63;;;13.70;100.00
62124;BME280;48110;47.532;19.078;2023-05-07T02:11:42;100372.72;;;13.61;100.00
62124;BME280;48110;47.532;19.078;2023-05-07T02:14:45;100373.09;;;13.58;100.00
62124;BME280;48110;47.532;19.078;2023-05-07T02:18:02;100375.63;;;13.44;100.00
62124;BME280;48110;47.532;19.078;2023-05-07T02:21:05;100383.19;;;13.26;100.00
62124;BME280;48110;47.532;19.078;2023-05-07T02:24:08;100382.63;;;13.16;100.00
62124;BME280;48110;47.532;19.078;2023-05-07T02:27:11;100382.22;;;13.04;100.00
62124;BME280;48110;47.532;19.078;2023-05-07T02:30:14;100383.16;;;12.97;100.00
62124;BME280;48110;47.532;19.078;2023-05-07T02:33:17;100372.16;;;13.15;100.00
62124;BME280;48110;47.532;19.078;2023-05-07T02:36:20;100375.53;;;13.08;100.00
62124;BME280;48110;47.532;19.078;2023-05-07T02:39:24;100373.22;;;13.05;100.00
62124;BME280;48110;47.532;19.078;2023-05-07T02:42:27;100369.34;;;12.93;100.00
62124;BME280;48110;47.532;19.078;2023-05-07T02:45:30;100370.47;;;12.84;100.00
62124;BME280;48110;47.532;19.078;2023-05-07T02:48:33;100366.06;;;12.77;100.00
62124;BME280;48110;47.532;19.078;2023-05-07T02:51:36;100373.09;;;12.70;100.00
62124;BME280;48110;47.532;19.078;2023-05-07T02:54:40;100380.63;;;12.66;100.00
62124;BME280;48110;47.532;19.078;2023-05-07T02:57:42;100381.09;;;12.70;100.00
62124;BME280;48110;47.532;19.078;2023-05-07T03:00:46;100384.41;;;12.72;100.00
62124;BME280;48110;47.532;19.078;2023-05-07T03:03:50;100380.38;;;12.76;100.00
62124;BME280;48110;47.532;19.078;2023-05-07T03:06:53;100383.78;;;12.84;100.00
62124;BME280;48110;47.532;19.078;2023-05-07T03:09:56;100383.97;;;12.97;100.00
62124;BME280;48110;47.532;19.078;2023-05-07T03:12:58;100384.72;;;13.06;100.00
62124;BME280;48110;47.532;19.078;2023-05-07T03:16:01;100379.66;;;12.96;100.00
62124;BME280;48110;47.532;19.078;2023-05-07T03:19:04;100379.72;;;12.88;100.00
62124;BME280;48110;47.532;19.078;2023-05-07T03:22:07;100376.44;;;12.86;100.00
62124;BME280;48110;47.532;19.078;2023-05-07T03:25:10;100379.09;;;12.86;100.00
62124;BME280;48110;47.532;19.078;2023-05-07T03:28:13;100376.53;;;12.93;100.00
62124;BME280;48110;47.532;19.078;2023-05-07T03:31:16;100392.06;;;13.04;100.00
62124;BME280;48110;47.532;19.078;2023-05-07T03:34:19;100384.50;;;13.07;100.00
62124;BME280;48110;47.532;19.078;2023-05-07T03:37:24;100390.50;;;13.10;100.00
62124;BME280;48110;47.532;19.078;2023-05-07T03:40:28;100391.88;;;13.05;100.00
62124;BME280;48110;47.532;19.078;2023-05-07T03:43:31;100387.69;;;13.11;100.00
62124;BME280;48110;47.532;19.078;2023-05-07T03:46:34;100386.31;;;13.15;100.00
62124;BME280;48110;47.532;19.078;2023-05-07T03:49:37;100384.47;;;13.16;100.00
62124;BME280;48110;47.532;19.078;2023-05-07T03:52:41;100381.16;;;13.14;100.00
62124;BME280;48110;47.532;19.078;2023-05-07T03:55:44;100387.84;;;13.10;100.00
62124;BME280;48110;47.532;19.078;2023-05-07T03:58:47;100385.91;;;13.03;100.00
62124;BME280;48110;47.532;19.078;2023-05-07T04:01:50;100383.69;;;13.07;100.00
62124;BME280;48110;47.532;19.078;2023-05-07T04:04:54;100388.31;;;13.13;100.00
62124;BME280;48110;47.532;19.078;2023-05-07T04:08:00;100400.44;;;13.16;100.00
62124;BME280;48110;47.532;19.078;2023-05-07T04:11:04;100395.19;;;13.22;100.00
62124;BME280;48110;47.532;19.078;2023-05-07T04:14:07;100401.47;;;13.15;100.00
62124;BME280;48110;47.532;19.078;2023-05-07T04:17:10;100406.50;;;13.24;100.00
62124;BME280;48110;47.532;19.078;2023-05-07T04:20:15;100401.56;;;13.21;100.00
62124;BME280;48110;47.532;19.078;2023-05-07T04:23:19;100407.78;;;13.28;100.00
62124;BME280;48110;47.532;19.078;2023-05-07T04:26:22;100410.91;;;13.32;100.00
62124;BME280;48110;47.532;19.078;2023-05-07T04:29:25;100405.31;;;13.27;100.00
62124;BME280;48110;47.532;19.078;2023-05-07T04:32:29;100416.63;;;13.29;100.00
62124;BME280;48110;47.532;19.078;2023-05-07T04:35:32;100413.22;;;13.20;100.00
62124;BME280;48110;47.532;19.078;2023-05-07T04:38:35;100417.53;;;13.21;100.00
62124;BME280;48110;47.532;19.078;2023-05-07T04:41:38;100417.25;;;13.31;100.00
62124;BME280;48110;47.532;19.078;2023-05-07T04:44:44;100422.75;;;13.44;100.00
62124;BME280;48110;47.532;19.078;2023-05-07T04:47:47;100427.91;;;13.60;100.00
62124;BME280;48110;47.532;19.078;2023-05-07T04:50:50;100422.34;;;13.76;100.00
62124;BME280;48110;47.532;19.078;2023-05-07T04:53:54;100423.13;;;13.91;100.00
62124;BME280;48110;47.532;19.078;2023-05-07T04:56:57;100422.69;;;14.09;100.00
62124;BME280;48110;47.532;19.078;2023-05-07T05:00:00;100425.22;;;14.32;100.00
62124;BME280;48110;47.532;19.078;2023-05-07T05:03:06;100432.38;;;14.53;100.00
62124;BME280;48110;47.532;19.078;2023-05-07T05:06:11;100431.03;;;14.85;100.00
62124;BME280;48110;47.532;19.078;2023-05-07T05:09:14;100438.78;;;15.07;100.00
62124;BME280;48110;47.532;19.078;2023-05-07T05:12:19;100443.50;;;15.05;100.00
62124;BME280;48110;47.532;19.078;2023-05-07T05:15:22;100444.78;;;15.16;100.00
62124;BME280;48110;47.532;19.078;2023-05-07T05:18:25;100443.59;;;15.18;100.00
62124;BME280;48110;47.532;19.078;2023-05-07T05:21:27;100442.25;;;15.36;100.00
62124;BME280;48110;47.532;19.078;2023-05-07T05:24:31;100449.19;;;15.58;100.00
62124;BME280;48110;47.532;19.078;2023-05-07T05:27:35;100445.31;;;15.67;100.00
62124;BME280;48110;47.532;19.078;2023-05-07T05:30:39;100448.47;;;15.77;100.00
62124;BME280;48110;47.532;19.078;2023-05-07T05:33:43;100453.13;;;15.69;100.00
62124;BME280;48110;47.532;19.078;2023-05-07T05:36:46;100448.22;;;15.38;100.00
62124;BME280;48110;47.532;19.078;2023-05-07T05:39:49;100456.47;;;15.43;100.00
62124;BME280;48110;47.532;19.078;2023-05-07T05:42:53;100446.75;;;15.29;100.00
62124;BME280;48110;47.532;19.078;2023-05-07T05:45:57;100446.69;;;15.22;100.00
62124;BME280;48110;47.532;19.078;2023-05-07T05:49:00;100444.84;;;15.22;100.00
62124;BME280;48110;47.532;19.078;2023-05-07T05:52:03;100438.72;;;15.29;100.00
62124;BME280;48110;47.532;19.078;2023-05-07T05:55:07;100441.13;;;15.51;100.00
62124;BME280;48110;47.532;19.078;2023-05-07T05:58:10;100433.37;;;15.70;100.00
62124;BME280;48110;47.532;19.078;2023-05-07T06:01:14;100431.66;;;16.03;100.00
62124;BME280;48110;47.532;19.078;2023-05-07T06:04:18;100439.31;;;16.19;100.00
62124;BME280;48110;47.532;19.078;2023-05-07T06:07:21;100441.00;;;16.33;100.00
62124;BME280;48110;47.532;19.078;2023-05-07T06:10:25;100433.81;;;16.40;100.00
62124;BME280;48110;47.532;19.078;2023-05-07T06:13:29;100426.38;;;16.56;100.00
62124;BME280;48110;47.532;19.078;2023-05-07T06:16:32;100423.09;;;16.53;100.00
62124;BME280;48110;47.532;19.078;2023-05-07T06:19:35;100426.78;;;16.52;100.00
62124;BME280;48110;47.532;19.078;2023-05-07T06:22:39;100429.91;;;16.76;100.00
62124;BME280;48110;47.532;19.078;2023-05-07T06:25:48;100430.94;;;17.01;100.00
62124;BME280;48110;47.532;19.078;2023-05-07T06:28:52;100441.66;;;17.01;100.00
62124;BME280;48110;47.532;19.078;2023-05-07T06:31:54;100442.66;;;17.20;100.00
62124;BME280;48110;47.532;19.078;2023-05-07T06:34:58;100441.19;;;17.30;100.00
62124;BME280;48110;47.532;19.078;2023-05-07T06:38:01;100443.22;;;17.42;100.00
62124;BME280;48110;47.532;19.078;2023-05-07T06:41:07;100444.75;;;17.82;100.00
62124;BME280;48110;47.532;19.078;2023-05-07T06:44:13;100448.97;;;18.09;100.00
62124;BME280;48110;47.532;19.078;2023-05-07T06:47:16;100447.31;;;18.08;100.00
62124;BME280;48110;47.532;19.078;2023-05-07T06:50:19;100439.50;;;18.70;100.00
62124;BME280;48110;47.532;19.078;2023-05-07T06:53:23;100442.00;;;19.14;100.00
62124;BME280;48110;47.532;19.078;2023-05-07T06:56:28;100446.41;;;19.27;100.00
62124;BME280;48110;47.532;19.078;2023-05-07T06:59:30;100444.50;;;19.52;100.00
62124;BME280;48110;47.532;19.078;2023-05-07T07:02:34;100447.06;;;19.65;100.00
62124;BME280;48110;47.532;19.078;2023-05-07T07:05:37;100443.75;;;20.11;100.00
62124;BME280;48110;47.532;19.078;2023-05-07T07:08:40;100441.47;;;20.56;100.00
62124;BME280;48110;47.532;19.078;2023-05-07T07:11:45;100450.91;;;21.35;98.66
62124;BME280;48110;47.532;19.078;2023-05-07T07:14:48;100454.31;;;22.22;87.85
62124;BME280;48110;47.532;19.078;2023-05-07T07:17:51;100450.47;;;22.63;79.96
62124;BME280;48110;47.532;19.078;2023-05-07T07:20:55;100459.69;;;22.79;77.65
62124;BME280;48110;47.532;19.078;2023-05-07T07:23:58;100455.47;;;23.38;74.46
62124;BME280;48110;47.532;19.078;2023-05-07T07:27:00;100457.19;;;22.16;72.98
62124;BME280;48110;47.532;19.078;2023-05-07T07:30:05;100453.34;;;21.02;82.81
62124;BME280;48110;47.532;19.078;2023-05-07T07:33:08;100463.75;;;20.63;88.93
62124;BME280;48110;47.532;19.078;2023-05-07T07:36:12;100463.44;;;21.06;86.50
62124;BME280;48110;47.532;19.078;2023-05-07T07:39:15;100465.97;;;21.94;81.45
62124;BME280;48110;47.532;19.078;2023-05-07T07:42:19;100469.56;;;22.57;76.83
62124;BME280;48110;47.532;19.078;2023-05-07T07:45:23;100465.38;;;22.49;75.01
62124;BME280;48110;47.532;19.078;2023-05-07T07:48:26;100474.25;;;23.28;70.22
62124;BME280;48110;47.532;19.078;2023-05-07T07:51:30;100478.94;;;22.82;72.22
62124;BME280;48110;47.532;19.078;2023-05-07T07:54:34;100472.19;;;23.73;65.25
62124;BME280;48110;47.532;19.078;2023-05-07T07:57:37;100482.38;;;23.88;64.31
62124;BME280;48110;47.532;19.078;2023-05-07T08:00:41;100475.84;;;24.59;62.29
62124;BME280;48110;47.532;19.078;2023-05-07T08:03:44;100483.22;;;24.91;59.01
62124;BME280;48110;47.532;19.078;2023-05-07T08:06:48;100480.81;;;23.32;63.73
62124;BME280;48110;47.532;19.078;2023-05-07T08:09:51;100474.09;;;23.18;65.67
62124;BME280;48110;47.532;19.078;2023-05-07T08:12:55;100480.97;;;23.42;64.97
62124;BME280;48110;47.532;19.078;2023-05-07T08:15:58;100476.66;;;23.85;59.92
62124;BME280;48110;47.532;19.078;2023-05-07T08:19:01;100484.22;;;24.04;60.27
62124;BME280;48110;47.532;19.078;2023-05-07T08:22:04;100476.97;;;23.28;58.93
62124;BME280;48110;47.532;19.078;2023-05-07T08:25:08;100477.31;;;22.81;60.37
62124;BME280;48110;47.532;19.078;2023-05-07T08:28:12;100479.44;;;23.13;61.11
62124;BME280;48110;47.532;19.078;2023-05-07T08:31:15;100479.81;;;23.38;58.32
62124;BME280;48110;47.532;19.078;2023-05-07T08:34:19;100472.47;;;23.00;59.41
62124;BME280;48110;47.532;19.078;2023-05-07T08:37:22;100456.59;;;22.42;59.94
62124;BME280;48110;47.532;19.078;2023-05-07T08:40:26;100461.16;;;21.96;60.95
62124;BME280;48110;47.532;19.078;2023-05-07T08:43:31;100460.72;;;22.16;59.64
62124;BME280;48110;47.532;19.078;2023-05-07T08:46:36;100461.78;;;22.60;59.05
62124;BME280;48110;47.532;19.078;2023-05-07T08:49:39;100464.37;;;22.83;60.22
62124;BME280;48110;47.532;19.078;2023-05-07T08:52:43;100465.88;;;23.46;58.23
62124;BME280;48110;47.532;19.078;2023-05-07T08:55:47;100465.75;;;24.23;53.91
62124;BME280;48110;47.532;19.078;2023-05-07T08:58:50;100464.78;;;24.34;53.04
62124;BME280;48110;47.532;19.078;2023-05-07T09:01:54;100465.78;;;24.06;52.89
62124;BME280;48110;47.532;19.078;2023-05-07T09:04:57;100470.31;;;23.52;51.64
62124;BME280;48110;47.532;19.078;2023-05-07T09:08:02;100462.06;;;23.09;52.03
62124;BME280;48110;47.532;19.078;2023-05-07T09:11:05;100467.72;;;22.90;49.10
62124;BME280;48110;47.532;19.078;2023-05-07T09:14:08;100466.22;;;23.71;48.92
62124;BME280;48110;47.532;19.078;2023-05-07T09:17:11;100467.50;;;24.66;47.23
62124;BME280;48110;47.532;19.078;2023-05-07T09:20:16;100463.25;;;26.11;45.41
62124;BME280;48110;47.532;19.078;2023-05-07T09:23:20;100468.50;;;26.38;41.42
62124;BME280;48110;47.532;19.078;2023-05-07T09:26:24;100462.91;;;25.87;45.13
62124;BME280;48110;47.532;19.078;2023-05-07T09:29:28;100469.62;;;26.93;43.45
62124;BME280;48110;47.532;19.078;2023-05-07T09:32:38;100464.19;;;26.67;41.72
62124;BME280;48110;47.532;19.078;2023-05-07T09:35:43;100467.75;;;27.98;40.54
62124;BME280;48110;47.532;19.078;2023-05-07T09:38:46;100465.44;;;27.66;38.16
62124;BME280;48110;47.532;19.078;2023-05-07T09:41:49;100466.88;;;29.48;36.50
62124;BME280;48110;47.532;19.078;2023-05-07T09:44:54;100468.19;;;29.74;35.92
62124;BME280;48110;47.532;19.078;2023-05-07T09:48:00;100466.22;;;29.80;36.87
62124;BME280;48110;47.532;19.078;2023-05-07T09:51:11;100464.94;;;31.03;35.35
62124;BME280;48110;47.532;19.078;2023-05-07T09:54:18;100467.13;;;31.34;33.23
62124;BME280;48110;47.532;19.078;2023-05-07T09:57:22;100460.25;;;29.97;35.99
62124;BME280;48110;47.532;19.078;2023-05-07T10:00:27;100457.94;;;26.67;41.12
62124;BME280;48110;47.532;19.078;2023-05-07T10:03:35;100456.28;;;26.46;42.24
62124;BME280;48110;47.532;19.078;2023-05-07T10:06:40;100463.03;;;25.56;43.73
62124;BME280;48110;47.532;19.078;2023-05-07T10:09:44;100463.34;;;24.53;47.64
62124;BME280;48110;47.532;19.078;2023-05-07T10:12:52;100457.41;;;24.08;50.13
62124;BME280;48110;47.532;19.078;2023-05-07T10:15:57;100461.97;;;24.83;46.68
62124;BME280;48110;47.532;19.078;2023-05-07T10:19:05;100466.56;;;24.23;47.62
62124;BME280;48110;47.532;19.078;2023-05-07T10:22:09;100460.91;;;23.60;50.66
62124;BME280;48110;47.532;19.078;2023-05-07T10:25:22;100458.03;;;23.28;51.91
62124;BME280;48110;47.532;19.078;2023-05-07T10:28:30;100451.25;;;22.92;53.88
62124;BME280;48110;47.532;19.078;2023-05-07T10:31:59;100451.19;;;23.25;53.38
62124;BME280;48110;47.532;19.078;2023-05-07T10:35:11;100453.94;;;23.86;52.76
62124;BME280;48110;47.532;19.078;2023-05-07T10:38:16;100453.38;;;24.32;49.78
62124;BME280;48110;47.532;19.078;2023-05-07T10:41:20;100450.84;;;24.84;47.91
62124;BME280;48110;47.532;19.078;2023-05-07T10:44:28;100456.00;;;26.47;42.94
62124;BME280;48110;47.532;19.078;2023-05-07T10:47:32;100452.12;;;25.08;44.02
62124;BME280;48110;47.532;19.078;2023-05-07T10:50:37;100466.38;;;24.30;46.00
62124;BME280;48110;47.532;19.078;2023-05-07T10:53:40;100453.91;;;23.64;48.77
62124;BME280;48110;47.532;19.078;2023-05-07T10:56:43;100454.56;;;23.32;51.56
62124;BME280;48110;47.532;19.078;2023-05-07T10:59:47;100459.84;;;23.44;51.65
62124;BME280;48110;47.532;19.078;2023-05-07T11:03:10;100448.81;;;23.46;52.90
62124;BME280;48110;47.532;19.078;2023-05-07T11:06:16;100446.69;;;24.45;51.66
62124;BME280;48110;47.532;19.078;2023-05-07T11:09:19;100452.59;;;25.42;48.81
62124;BME280;48110;47.532;19.078;2023-05-07T11:15:44;100460.47;;;29.82;38.10
62124;BME280;48110;47.532;19.078;2023-05-07T11:18:50;100449.47;;;29.87;37.40
62124;BME280;48110;47.532;19.078;2023-05-07T11:21:55;100448.25;;;30.35;36.04
62124;BME280;48110;47.532;19.078;2023-05-07T11:25:00;100448.75;;;30.18;35.81
62124;BME280;48110;47.532;19.078;2023-05-07T11:28:06;100453.59;;;32.06;32.41
62124;BME280;48110;47.532;19.078;2023-05-07T11:31:10;100449.25;;;30.02;36.04
62124;BME280;48110;47.532;19.078;2023-05-07T11:34:13;100443.87;;;32.35;32.90
62124;BME280;48110;47.532;19.078;2023-05-07T11:37:18;100448.38;;;31.68;32.50
62124;BME280;48110;47.532;19.078;2023-05-07T11:40:22;100451.19;;;32.62;31.28
62124;BME280;48110;47.532;19.078;2023-05-07T11:43:25;100438.88;;;32.60;31.21
62124;BME280;48110;47.532;19.078;2023-05-07T11:46:28;100439.59;;;32.43;31.14
62124;BME280;48110;47.532;19.078;2023-05-07T11:49:31;100437.00;;;31.75;32.48
62124;BME280;48110;47.532;19.078;2023-05-07T11:52:34;100438.59;;;31.89;32.47
62124;BME280;48110;47.532;19.078;2023-05-07T11:55:37;100442.38;;;31.80;32.02
62124;BME280;48110;47.532;19.078;2023-05-07T11:58:41;100429.00;;;32.59;30.41
62124;BME280;48110;47.532;19.078;2023-05-07T12:01:47;100421.78;;;32.63;30.10
62124;BME280;48110;47.532;19.078;2023-05-07T12:04:51;100432.84;;;31.64;30.84
62124;BME280;48110;47.532;19.078;2023-05-07T12:07:57;100428.78;;;32.11;29.97
62124;BME280;48110;47.532;19.078;2023-05-07T12:11:00;100420.75;;;32.01;30.26
62124;BME280;48110;47.532;19.078;2023-05-07T12:14:03;100422.19;;;27.98;36.63
62124;BME280;48110;47.532;19.078;2023-05-07T12:17:12;100414.66;;;28.29;36.96
62124;BME280;48110;47.532;19.078;2023-05-07T12:20:16;100415.12;;;27.28;38.23
62124;BME280;48110;47.532;19.078;2023-05-07T12:23:21;100419.75;;;26.16;40.95
62124;BME280;48110;47.532;19.078;2023-05-07T12:26:23;100420.63;;;28.70;37.32
62124;BME280;48110;47.532;19.078;2023-05-07T12:29:27;100413.75;;;33.19;29.85
62124;BME280;48110;47.532;19.078;2023-05-07T12:32:30;100413.28;;;33.83;27.57
62124;BME280;48110;47.532;19.078;2023-05-07T12:35:39;100427.72;;;33.40;28.81
62124;BME280;48110;47.532;19.078;2023-05-07T12:38:43;100417.84;;;33.39;27.56
62124;BME280;48110;47.532;19.078;2023-05-07T12:41:57;100411.31;;;33.75;26.88
62124;BME280;48110;47.532;19.078;2023-05-07T12:45:10;100420.94;;;35.86;23.71
62124;BME280;48110;47.532;19.078;2023-05-07T12:48:14;100415.22;;;34.85;26.39
62124;BME280;48110;47.532;19.078;2023-05-07T12:51:17;100407.88;;;33.60;28.02
62124;BME280;48110;47.532;19.078;2023-05-07T12:54:28;100408.22;;;29.59;32.97
62124;BME280;48110;47.532;19.078;2023-05-07T12:57:38;100406.03;;;27.63;36.37
62124;BME280;48110;47.532;19.078;2023-05-07T13:00:41;100399.34;;;28.96;35.25
62124;BME280;48110;47.532;19.078;2023-05-07T13:03:48;100408.47;;;30.89;31.58
62124;BME280;48110;47.532;19.078;2023-05-07T13:06:53;100394.81;;;30.38;32.57
62124;BME280;48110;47.532;19.078;2023-05-07T13:09:56;100402.44;;;31.33;31.81
62124;BME280;48110;47.532;19.078;2023-05-07T13:12:59;100398.66;;;33.17;29.27
62124;BME280;48110;47.532;19.078;2023-05-07T13:16:03;100399.69;;;32.99;28.63
62124;BME280;48110;47.532;19.078;2023-05-07T13:19:06;100397.06;;;31.69;29.86
62124;BME280;48110;47.532;19.078;2023-05-07T13:22:09;100391.66;;;31.77;30.41
62124;BME280;48110;47.532;19.078;2023-05-07T13:25:12;100389.87;;;33.06;28.66
62124;BME280;48110;47.532;19.078;2023-05-07T13:28:16;100393.69;;;33.19;28.26
62124;BME280;48110;47.532;19.078;2023-05-07T13:31:23;100381.00;;;30.29;31.90
62124;BME280;48110;47.532;19.078;2023-05-07T13:34:25;100380.25;;;32.20;29.43
62124;BME280;48110;47.532;19.078;2023-05-07T13:37:28;100391.72;;;32.00;30.21
62124;BME280;48110;47.532;19.078;2023-05-07T13:40:31;100385.22;;;30.03;32.33
62124;BME280;48110;47.532;19.078;2023-05-07T13:43:34;100380.91;;;26.87;37.39
62124;BME280;48110;47.532;19.078;2023-05-07T13:46:37;100385.66;;;29.49;33.41
62124;BME280;48110;47.532;19.078;2023-05-07T13:49:40;100379.53;;;32.50;28.46
62124;BME280;48110;47.532;19.078;2023-05-07T13:52:44;100373.44;;;31.95;29.31
62124;BME280;48110;47.532;19.078;2023-05-07T13:55:53;100375.22;;;32.35;28.80
62124;BME280;48110;47.532;19.078;2023-05-07T13:58:56;100369.34;;;31.57;29.69
62124;BME280;48110;47.532;19.078;2023-05-07T14:02:02;100375.87;;;33.90;27.22
62124;BME280;48110;47.532;19.078;2023-05-07T14:05:06;100364.94;;;32.05;29.49
62124;BME280;48110;47.532;19.078;2023-05-07T14:08:08;100370.28;;;32.99;28.34
62124;BME280;48110;47.532;19.078;2023-05-07T14:11:12;100371.69;;;34.36;26.62
62124;BME280;48110;47.532;19.078;2023-05-07T14:14:16;100367.47;;;33.78;26.30
62124;BME280;48110;47.532;19.078;2023-05-07T14:17:20;100355.41;;;30.98;29.37
62124;BME280;48110;47.532;19.078;2023-05-07T14:20:23;100354.22;;;31.04;29.96
62124;BME280;48110;47.532;19.078;2023-05-07T14:23:25;100358.59;;;28.42;33.00
62124;BME280;48110;47.532;19.078;2023-05-07T14:26:28;100356.34;;;25.90;37.09
62124;BME280;48110;47.532;19.078;2023-05-07T14:29:34;100357.28;;;25.44;37.73
62124;BME280;48110;47.532;19.078;2023-05-07T14:32:45;100369.22;;;25.43;37.83
62124;BME280;48110;47.532;19.078;2023-05-07T14:35:48;100355.75;;;25.06;38.29
62124;BME280;48110;47.532;19.078;2023-05-07T14:38:52;100367.88;;;24.93;39.65
62124;BME280;48110;47.532;19.078;2023-05-07T14:41:57;100364.12;;;24.62;39.38
62124;BME280;48110;47.532;19.078;2023-05-07T14:45:00;100364.62;;;24.54;40.54
62124;BME280;48110;47.532;19.078;2023-05-07T14:48:03;100378.03;;;24.34;41.98
62124;BME280;48110;47.532;19.078;2023-05-07T14:51:06;100376.00;;;24.19;41.54
62124;BME280;48110;47.532;19.078;2023-05-07T14:54:09;100373.50;;;24.50;41.15
62124;BME280;48110;47.532;19.078;2023-05-07T14:57:13;100370.78;;;24.82;41.43
62124;BME280;48110;47.532;19.078;2023-05-07T15:00:19;100372.09;;;25.16;40.41
62124;BME280;48110;47.532;19.078;2023-05-07T15:03:21;100386.88;;;26.63;37.38
62124;BME280;48110;47.532;19.078;2023-05-07T15:06:24;100379.66;;;25.56;39.25
62124;BME280;48110;47.532;19.078;2023-05-07T15:09:28;100377.31;;;26.10;39.23
62124;BME280;48110;47.532;19.078;2023-05-07T15:12:32;100385.13;;;24.45;43.16
62124;BME280;48110;47.532;19.078;2023-05-07T15:15:35;100377.88;;;23.97;43.61
62124;BME280;48110;47.532;19.078;2023-05-07T15:18:46;100377.66;;;24.25;43.63
62124;BME280;48110;47.532;19.078;2023-05-07T15:21:49;100381.06;;;25.17;41.63
62124;BME280;48110;47.532;19.078;2023-05-07T15:24:52;100385.97;;;25.82;40.05
62124;BME280;48110;47.532;19.078;2023-05-07T15:28:02;100384.75;;;24.32;42.68
62124;BME280;48110;47.532;19.078;2023-05-07T15:31:05;100389.97;;;23.41;45.29
62124;BME280;48110;47.532;19.078;2023-05-07T15:34:09;100385.63;;;23.40;45.69
62124;BME280;48110;47.532;19.078;2023-05-07T15:37:12;100386.31;;;22.92;46.29
62124;BME280;48110;47.532;19.078;2023-05-07T15:40:15;100384.34;;;22.87;47.03
62124;BME280;48110;47.532;19.078;2023-05-07T15:43:18;100387.50;;;22.79;47.06
62124;BME280;48110;47.532;19.078;2023-05-07T15:46:22;100378.28;;;22.30;46.90
62124;BME280;48110;47.532;19.078;2023-05-07T15:49:27;100384.34;;;22.21;46.56